Wilbur Springs, California
Current Conditions -  °F | °C
As of 8:53 AM on Friday 31 Oct 2014 (Local Time) from KMYV Reporting Station
Clear Clear  
Wind Chill: 61°   Ceiling: Unl
Heat Index: 61°   Visibility: 10mi
Dew Point: 54°   Wind: 6mph
Humidity: 78%   Direction: 160°SSE
Pressure: 29.86"   Gusts: NA
Location:  39.1016°N, 122.307°W
Report Text: KMYV 311553Z AUTO 16005KT 10SM CLR 16/12 A2986 RMK AO2 SLP114 T01610122
Loading
Personal Weather Stations






























Interactive Weather Map
Tropical Storm Tracking
New forecast layout! Learn more

10-Day Weather Forecast

Advertisements
Track Severe Weather on mobile